sensor_id;sensor_type;location;lat;lon;timestamp;P1;durP1;ratioP1;P2;durP2;ratioP2
13327;SDS011;6733;51.044;3.746;2023-03-23T00:01:07;3.47;;;2.60;;
13327;SDS011;6733;51.044;3.746;2023-03-23T00:03:39;4.83;;;2.70;;
13327;SDS011;6733;51.044;3.746;2023-03-23T00:06:07;2.97;;;2.67;;
13327;SDS011;6733;51.044;3.746;2023-03-23T00:08:34;3.33;;;2.57;;
13327;SDS011;6733;51.044;3.746;2023-03-23T00:11:11;3.50;;;3.00;;
13327;SDS011;6733;51.044;3.746;2023-03-23T00:13:42;3.30;;;3.07;;
13327;SDS011;6733;51.044;3.746;2023-03-23T00:16:09;4.67;;;3.10;;
13327;SDS011;6733;51.044;3.746;2023-03-23T00:18:48;4.90;;;3.30;;
13327;SDS011;6733;51.044;3.746;2023-03-23T00:21:18;3.97;;;3.03;;
13327;SDS011;6733;51.044;3.746;2023-03-23T00:23:45;3.83;;;2.90;;
13327;SDS011;6733;51.044;3.746;2023-03-23T00:26:11;5.60;;;3.33;;
13327;SDS011;6733;51.044;3.746;2023-03-23T00:28:39;3.73;;;3.10;;
13327;SDS011;6733;51.044;3.746;2023-03-23T00:31:05;4.70;;;3.23;;
13327;SDS011;6733;51.044;3.746;2023-03-23T00:33:34;3.63;;;3.00;;
13327;SDS011;6733;51.044;3.746;2023-03-23T00:38:34;4.40;;;3.10;;
13327;SDS011;6733;51.044;3.746;2023-03-23T00:41:01;4.70;;;3.53;;
13327;SDS011;6733;51.044;3.746;2023-03-23T00:43:28;3.50;;;3.20;;
13327;SDS011;6733;51.044;3.746;2023-03-23T00:45:55;3.73;;;2.87;;
13327;SDS011;6733;51.044;3.746;2023-03-23T00:48:22;3.87;;;3.13;;
13327;SDS011;6733;51.044;3.746;2023-03-23T00:50:50;3.47;;;2.73;;
13327;SDS011;6733;51.044;3.746;2023-03-23T00:53:17;5.73;;;3.13;;
13327;SDS011;6733;51.044;3.746;2023-03-23T00:55:44;4.07;;;2.90;;
13327;SDS011;6733;51.044;3.746;2023-03-23T00:58:11;3.57;;;3.10;;
13327;SDS011;6733;51.044;3.746;2023-03-23T01:00:38;4.60;;;2.90;;
13327;SDS011;6733;51.044;3.746;2023-03-23T01:03:04;5.90;;;3.37;;
13327;SDS011;6733;51.044;3.746;2023-03-23T01:05:34;5.30;;;2.70;;
13327;SDS011;6733;51.044;3.746;2023-03-23T01:08:01;4.90;;;2.73;;
13327;SDS011;6733;51.044;3.746;2023-03-23T01:10:27;5.00;;;2.90;;
13327;SDS011;6733;51.044;3.746;2023-03-23T01:13:01;4.33;;;2.77;;
13327;SDS011;6733;51.044;3.746;2023-03-23T01:15:28;3.93;;;3.10;;
13327;SDS011;6733;51.044;3.746;2023-03-23T01:17:55;3.83;;;2.70;;
13327;SDS011;6733;51.044;3.746;2023-03-23T01:20:22;3.23;;;2.83;;
13327;SDS011;6733;51.044;3.746;2023-03-23T01:22:49;2.90;;;2.60;;
13327;SDS011;6733;51.044;3.746;2023-03-23T01:25:15;3.67;;;2.87;;
13327;SDS011;6733;51.044;3.746;2023-03-23T01:27:41;3.13;;;2.33;;
13327;SDS011;6733;51.044;3.746;2023-03-23T01:30:09;3.43;;;2.80;;
13327;SDS011;6733;51.044;3.746;2023-03-23T01:32:37;3.00;;;2.80;;
13327;SDS011;6733;51.044;3.746;2023-03-23T01:35:03;4.80;;;2.80;;
13327;SDS011;6733;51.044;3.746;2023-03-23T01:37:30;3.27;;;2.97;;
13327;SDS011;6733;51.044;3.746;2023-03-23T01:39:57;2.60;;;2.40;;
13327;SDS011;6733;51.044;3.746;2023-03-23T01:42:24;2.90;;;2.40;;
13327;SDS011;6733;51.044;3.746;2023-03-23T01:47:18;4.13;;;2.60;;
13327;SDS011;6733;51.044;3.746;2023-03-23T01:49:48;3.87;;;2.70;;
13327;SDS011;6733;51.044;3.746;2023-03-23T01:52:16;2.47;;;2.20;;
13327;SDS011;6733;51.044;3.746;2023-03-23T01:54:49;4.97;;;2.90;;
13327;SDS011;6733;51.044;3.746;2023-03-23T01:57:18;2.80;;;1.87;;
13327;SDS011;6733;51.044;3.746;2023-03-23T01:59:46;2.70;;;2.20;;
13327;SDS011;6733;51.044;3.746;2023-03-23T02:02:16;2.70;;;2.20;;
13327;SDS011;6733;51.044;3.746;2023-03-23T02:04:45;5.23;;;2.73;;
13327;SDS011;6733;51.044;3.746;2023-03-23T02:07:12;2.97;;;2.20;;
13327;SDS011;6733;51.044;3.746;2023-03-23T02:09:40;2.13;;;1.93;;
13327;SDS011;6733;51.044;3.746;2023-03-23T02:12:07;2.87;;;2.23;;
13327;SDS011;6733;51.044;3.746;2023-03-23T02:14:32;3.33;;;2.00;;
13327;SDS011;6733;51.044;3.746;2023-03-23T02:30:39;6.73;;;2.27;;
13327;SDS011;6733;51.044;3.746;2023-03-23T02:36:38;4.17;;;2.40;;
13327;SDS011;6733;51.044;3.746;2023-03-23T02:41:41;6.77;;;2.50;;
13327;SDS011;6733;51.044;3.746;2023-03-23T02:44:13;4.53;;;2.30;;
13327;SDS011;6733;51.044;3.746;2023-03-23T02:46:41;3.73;;;2.33;;
13327;SDS011;6733;51.044;3.746;2023-03-23T02:49:09;6.23;;;2.10;;
13327;SDS011;6733;51.044;3.746;2023-03-23T02:51:39;8.40;;;2.60;;
13327;SDS011;6733;51.044;3.746;2023-03-23T02:54:05;6.50;;;2.47;;
13327;SDS011;6733;51.044;3.746;2023-03-23T02:56:32;4.43;;;2.40;;
13327;SDS011;6733;51.044;3.746;2023-03-23T02:59:00;5.17;;;2.30;;
13327;SDS011;6733;51.044;3.746;2023-03-23T03:03:58;5.30;;;2.23;;
13327;SDS011;6733;51.044;3.746;2023-03-23T03:12:30;7.10;;;2.10;;
13327;SDS011;6733;51.044;3.746;2023-03-23T03:15:34;6.03;;;2.20;;
13327;SDS011;6733;51.044;3.746;2023-03-23T03:18:08;6.00;;;2.00;;
13327;SDS011;6733;51.044;3.746;2023-03-23T03:21:01;5.50;;;2.30;;
13327;SDS011;6733;51.044;3.746;2023-03-23T03:23:33;3.77;;;1.80;;
13327;SDS011;6733;51.044;3.746;2023-03-23T03:26:02;5.23;;;2.10;;
13327;SDS011;6733;51.044;3.746;2023-03-23T03:28:30;3.60;;;1.97;;
13327;SDS011;6733;51.044;3.746;2023-03-23T03:30:57;6.00;;;2.17;;
13327;SDS011;6733;51.044;3.746;2023-03-23T03:33:26;4.80;;;2.33;;
13327;SDS011;6733;51.044;3.746;2023-03-23T03:35:57;3.13;;;1.87;;
13327;SDS011;6733;51.044;3.746;2023-03-23T03:38:25;3.10;;;2.13;;
13327;SDS011;6733;51.044;3.746;2023-03-23T03:40:51;4.73;;;2.50;;
13327;SDS011;6733;51.044;3.746;2023-03-23T03:43:18;4.10;;;2.20;;
13327;SDS011;6733;51.044;3.746;2023-03-23T03:45:44;4.20;;;2.00;;
13327;SDS011;6733;51.044;3.746;2023-03-23T03:48:10;7.40;;;2.40;;
13327;SDS011;6733;51.044;3.746;2023-03-23T03:50:36;6.67;;;2.33;;
13327;SDS011;6733;51.044;3.746;2023-03-23T03:53:03;5.50;;;2.37;;
13327;SDS011;6733;51.044;3.746;2023-03-23T03:55:31;5.57;;;2.67;;
13327;SDS011;6733;51.044;3.746;2023-03-23T03:58:03;6.73;;;2.20;;
13327;SDS011;6733;51.044;3.746;2023-03-23T04:00:30;4.20;;;2.20;;
13327;SDS011;6733;51.044;3.746;2023-03-23T04:02:55;3.87;;;2.20;;
13327;SDS011;6733;51.044;3.746;2023-03-23T04:05:22;7.17;;;2.13;;
13327;SDS011;6733;51.044;3.746;2023-03-23T04:07:48;5.10;;;2.40;;
13327;SDS011;6733;51.044;3.746;2023-03-23T04:10:17;4.70;;;2.03;;
13327;SDS011;6733;51.044;3.746;2023-03-23T04:12:48;6.27;;;2.10;;
13327;SDS011;6733;51.044;3.746;2023-03-23T04:15:15;5.83;;;2.40;;
13327;SDS011;6733;51.044;3.746;2023-03-23T04:17:41;4.90;;;2.30;;
13327;SDS011;6733;51.044;3.746;2023-03-23T04:20:08;5.27;;;2.53;;
13327;SDS011;6733;51.044;3.746;2023-03-23T04:22:43;5.33;;;2.50;;
13327;SDS011;6733;51.044;3.746;2023-03-23T04:25:11;7.40;;;2.30;;
13327;SDS011;6733;51.044;3.746;2023-03-23T04:27:38;5.17;;;2.40;;
13327;SDS011;6733;51.044;3.746;2023-03-23T04:30:09;7.97;;;2.13;;
13327;SDS011;6733;51.044;3.746;2023-03-23T04:32:37;6.87;;;2.20;;
13327;SDS011;6733;51.044;3.746;2023-03-23T04:35:07;5.93;;;2.63;;
13327;SDS011;6733;51.044;3.746;2023-03-23T04:37:34;8.27;;;2.60;;
13327;SDS011;6733;51.044;3.746;2023-03-23T04:40:02;9.20;;;3.10;;
13327;SDS011;6733;51.044;3.746;2023-03-23T04:42:37;9.57;;;2.90;;
13327;SDS011;6733;51.044;3.746;2023-03-23T04:45:04;5.30;;;2.60;;
13327;SDS011;6733;51.044;3.746;2023-03-23T04:47:33;6.93;;;3.00;;
13327;SDS011;6733;51.044;3.746;2023-03-23T04:50:09;5.57;;;3.10;;
13327;SDS011;6733;51.044;3.746;2023-03-23T04:52:37;5.57;;;2.40;;
13327;SDS011;6733;51.044;3.746;2023-03-23T04:55:08;7.70;;;2.57;;
13327;SDS011;6733;51.044;3.746;2023-03-23T04:57:35;8.27;;;2.40;;
13327;SDS011;6733;51.044;3.746;2023-03-23T05:00:02;7.23;;;2.83;;
13327;SDS011;6733;51.044;3.746;2023-03-23T05:02:37;7.73;;;2.50;;
13327;SDS011;6733;51.044;3.746;2023-03-23T05:05:05;6.53;;;2.73;;
13327;SDS011;6733;51.044;3.746;2023-03-23T05:07:32;6.70;;;3.03;;
13327;SDS011;6733;51.044;3.746;2023-03-23T05:09:59;9.67;;;2.53;;
13327;SDS011;6733;51.044;3.746;2023-03-23T05:12:24;7.40;;;2.60;;
13327;SDS011;6733;51.044;3.746;2023-03-23T05:14:50;8.93;;;2.73;;
13327;SDS011;6733;51.044;3.746;2023-03-23T05:17:16;8.97;;;3.27;;
13327;SDS011;6733;51.044;3.746;2023-03-23T05:19:44;7.07;;;2.37;;
13327;SDS011;6733;51.044;3.746;2023-03-23T05:22:15;7.53;;;2.33;;
13327;SDS011;6733;51.044;3.746;2023-03-23T05:24:42;8.27;;;2.97;;
13327;SDS011;6733;51.044;3.746;2023-03-23T05:27:08;9.50;;;2.60;;
13327;SDS011;6733;51.044;3.746;2023-03-23T05:29:35;5.67;;;2.60;;
13327;SDS011;6733;51.044;3.746;2023-03-23T05:32:02;8.20;;;3.03;;
13327;SDS011;6733;51.044;3.746;2023-03-23T05:34:30;8.33;;;2.87;;
13327;SDS011;6733;51.044;3.746;2023-03-23T05:37:00;8.27;;;3.23;;
13327;SDS011;6733;51.044;3.746;2023-03-23T05:39:28;7.67;;;3.97;;
13327;SDS011;6733;51.044;3.746;2023-03-23T05:41:55;8.77;;;3.20;;
13327;SDS011;6733;51.044;3.746;2023-03-23T05:44:21;10.33;;;2.70;;
13327;SDS011;6733;51.044;3.746;2023-03-23T05:46:47;6.83;;;2.50;;
13327;SDS011;6733;51.044;3.746;2023-03-23T05:49:14;5.77;;;2.60;;
13327;SDS011;6733;51.044;3.746;2023-03-23T05:51:44;9.63;;;2.77;;
13327;SDS011;6733;51.044;3.746;2023-03-23T05:54:11;6.47;;;3.27;;
13327;SDS011;6733;51.044;3.746;2023-03-23T05:56:39;8.60;;;3.00;;
13327;SDS011;6733;51.044;3.746;2023-03-23T05:59:06;5.57;;;2.27;;
13327;SDS011;6733;51.044;3.746;2023-03-23T06:01:32;9.43;;;2.70;;
13327;SDS011;6733;51.044;3.746;2023-03-23T06:03:58;6.10;;;2.33;;
13327;SDS011;6733;51.044;3.746;2023-03-23T06:06:25;7.83;;;2.40;;
13327;SDS011;6733;51.044;3.746;2023-03-23T06:08:51;4.33;;;1.93;;
13327;SDS011;6733;51.044;3.746;2023-03-23T06:11:18;8.37;;;2.43;;
13327;SDS011;6733;51.044;3.746;2023-03-23T06:13:44;5.73;;;1.83;;
13327;SDS011;6733;51.044;3.746;2023-03-23T06:16:10;6.43;;;2.50;;
13327;SDS011;6733;51.044;3.746;2023-03-23T06:18:36;6.70;;;2.00;;
13327;SDS011;6733;51.044;3.746;2023-03-23T06:21:09;5.00;;;2.20;;
13327;SDS011;6733;51.044;3.746;2023-03-23T06:23:37;4.37;;;1.90;;
13327;SDS011;6733;51.044;3.746;2023-03-23T06:26:05;6.20;;;2.13;;
13327;SDS011;6733;51.044;3.746;2023-03-23T06:28:33;5.53;;;2.17;;
13327;SDS011;6733;51.044;3.746;2023-03-23T06:31:00;7.97;;;2.47;;
13327;SDS011;6733;51.044;3.746;2023-03-23T06:33:27;5.83;;;2.20;;
13327;SDS011;6733;51.044;3.746;2023-03-23T06:35:53;6.43;;;1.97;;
13327;SDS011;6733;51.044;3.746;2023-03-23T06:38:21;3.23;;;1.83;;
13327;SDS011;6733;51.044;3.746;2023-03-23T06:40:47;5.80;;;2.17;;
13327;SDS011;6733;51.044;3.746;2023-03-23T06:43:13;5.17;;;2.10;;
13327;SDS011;6733;51.044;3.746;2023-03-23T06:45:40;5.57;;;2.47;;
13327;SDS011;6733;51.044;3.746;2023-03-23T06:48:06;5.07;;;2.03;;
13327;SDS011;6733;51.044;3.746;2023-03-23T06:50:32;6.30;;;2.03;;
13327;SDS011;6733;51.044;3.746;2023-03-23T06:52:58;5.20;;;2.20;;
13327;SDS011;6733;51.044;3.746;2023-03-23T06:55:25;6.73;;;2.57;;
13327;SDS011;6733;51.044;3.746;2023-03-23T06:57:50;6.83;;;2.47;;
13327;SDS011;6733;51.044;3.746;2023-03-23T07:00:16;6.57;;;2.17;;
13327;SDS011;6733;51.044;3.746;2023-03-23T07:02:42;4.80;;;2.10;;
13327;SDS011;6733;51.044;3.746;2023-03-23T07:05:10;5.07;;;2.13;;
13327;SDS011;6733;51.044;3.746;2023-03-23T07:07:37;5.03;;;2.27;;
13327;SDS011;6733;51.044;3.746;2023-03-23T07:10:04;5.10;;;2.10;;
13327;SDS011;6733;51.044;3.746;2023-03-23T07:12:32;4.07;;;2.03;;
13327;SDS011;6733;51.044;3.746;2023-03-23T07:14:58;3.90;;;2.00;;
13327;SDS011;6733;51.044;3.746;2023-03-23T07:17:24;5.67;;;2.20;;
13327;SDS011;6733;51.044;3.746;2023-03-23T07:19:51;4.53;;;2.20;;
13327;SDS011;6733;51.044;3.746;2023-03-23T07:22:17;7.10;;;2.57;;
13327;SDS011;6733;51.044;3.746;2023-03-23T07:24:43;5.57;;;1.97;;
13327;SDS011;6733;51.044;3.746;2023-03-23T07:27:09;6.00;;;2.00;;
13327;SDS011;6733;51.044;3.746;2023-03-23T07:29:36;7.40;;;2.20;;
13327;SDS011;6733;51.044;3.746;2023-03-23T07:32:04;8.80;;;3.00;;
13327;SDS011;6733;51.044;3.746;2023-03-23T07:34:32;3.87;;;2.00;;
13327;SDS011;6733;51.044;3.746;2023-03-23T07:36:58;4.57;;;2.43;;
13327;SDS011;6733;51.044;3.746;2023-03-23T07:39:25;4.83;;;2.27;;
13327;SDS011;6733;51.044;3.746;2023-03-23T07:41:51;10.70;;;2.80;;
13327;SDS011;6733;51.044;3.746;2023-03-23T07:44:17;7.00;;;2.43;;
13327;SDS011;6733;51.044;3.746;2023-03-23T07:46:43;6.30;;;2.50;;
13327;SDS011;6733;51.044;3.746;2023-03-23T07:49:09;5.33;;;2.30;;
13327;SDS011;6733;51.044;3.746;2023-03-23T07:51:36;7.13;;;2.73;;
13327;SDS011;6733;51.044;3.746;2023-03-23T07:54:04;7.83;;;2.73;;
13327;SDS011;6733;51.044;3.746;2023-03-23T07:56:33;7.33;;;3.53;;
13327;SDS011;6733;51.044;3.746;2023-03-23T07:59:01;6.33;;;3.03;;
13327;SDS011;6733;51.044;3.746;2023-03-23T08:01:28;7.40;;;2.23;;
13327;SDS011;6733;51.044;3.746;2023-03-23T08:03:54;7.67;;;2.40;;
13327;SDS011;6733;51.044;3.746;2023-03-23T08:06:23;5.50;;;2.30;;
13327;SDS011;6733;51.044;3.746;2023-03-23T08:08:50;4.63;;;2.67;;
13327;SDS011;6733;51.044;3.746;2023-03-23T08:11:17;7.00;;;2.50;;
13327;SDS011;6733;51.044;3.746;2023-03-23T08:13:44;6.47;;;2.93;;
13327;SDS011;6733;51.044;3.746;2023-03-23T08:16:11;7.73;;;2.13;;
13327;SDS011;6733;51.044;3.746;2023-03-23T08:18:37;4.87;;;2.20;;
13327;SDS011;6733;51.044;3.746;2023-03-23T08:21:05;7.83;;;2.43;;
13327;SDS011;6733;51.044;3.746;2023-03-23T08:23:32;7.20;;;2.50;;
13327;SDS011;6733;51.044;3.746;2023-03-23T08:25:59;5.70;;;2.40;;
13327;SDS011;6733;51.044;3.746;2023-03-23T08:28:26;3.83;;;2.43;;
13327;SDS011;6733;51.044;3.746;2023-03-23T08:30:52;7.33;;;2.90;;
13327;SDS011;6733;51.044;3.746;2023-03-23T08:33:18;5.90;;;2.50;;
13327;SDS011;6733;51.044;3.746;2023-03-23T08:35:54;6.90;;;2.20;;
13327;SDS011;6733;51.044;3.746;2023-03-23T08:38:23;6.20;;;2.37;;
13327;SDS011;6733;51.044;3.746;2023-03-23T08:40:50;7.73;;;2.83;;
13327;SDS011;6733;51.044;3.746;2023-03-23T08:43:17;6.80;;;2.67;;
13327;SDS011;6733;51.044;3.746;2023-03-23T08:45:43;5.87;;;2.40;;
13327;SDS011;6733;51.044;3.746;2023-03-23T08:48:09;5.63;;;2.70;;
13327;SDS011;6733;51.044;3.746;2023-03-23T08:50:36;6.60;;;2.33;;
13327;SDS011;6733;51.044;3.746;2023-03-23T08:53:02;8.80;;;2.63;;
13327;SDS011;6733;51.044;3.746;2023-03-23T08:55:29;6.63;;;2.73;;
13327;SDS011;6733;51.044;3.746;2023-03-23T08:57:55;7.53;;;2.93;;
13327;SDS011;6733;51.044;3.746;2023-03-23T09:00:22;7.87;;;2.37;;
13327;SDS011;6733;51.044;3.746;2023-03-23T09:02:50;7.10;;;2.67;;
13327;SDS011;6733;51.044;3.746;2023-03-23T09:05:19;6.90;;;2.60;;
13327;SDS011;6733;51.044;3.746;2023-03-23T09:07:47;12.17;;;3.47;;
13327;SDS011;6733;51.044;3.746;2023-03-23T09:10:15;8.10;;;2.67;;
13327;SDS011;6733;51.044;3.746;2023-03-23T09:12:43;7.03;;;2.47;;
13327;SDS011;6733;51.044;3.746;2023-03-23T09:15:11;4.47;;;2.33;;
13327;SDS011;6733;51.044;3.746;2023-03-23T09:17:47;4.43;;;2.13;;
13327;SDS011;6733;51.044;3.746;2023-03-23T09:20:16;8.13;;;2.53;;
13327;SDS011;6733;51.044;3.746;2023-03-23T09:22:45;8.93;;;3.27;;
13327;SDS011;6733;51.044;3.746;2023-03-23T09:25:13;4.80;;;2.27;;
13327;SDS011;6733;51.044;3.746;2023-03-23T09:27:42;2.77;;;2.20;;
13327;SDS011;6733;51.044;3.746;2023-03-23T09:30:09;3.47;;;2.20;;
13327;SDS011;6733;51.044;3.746;2023-03-23T09:32:37;5.70;;;2.00;;
13327;SDS011;6733;51.044;3.746;2023-03-23T09:35:05;4.97;;;2.13;;
13327;SDS011;6733;51.044;3.746;2023-03-23T09:37:34;4.07;;;2.10;;
13327;SDS011;6733;51.044;3.746;2023-03-23T09:40:05;3.97;;;2.10;;
13327;SDS011;6733;51.044;3.746;2023-03-23T09:47:49;4.73;;;2.37;;
13327;SDS011;6733;51.044;3.746;2023-03-23T09:50:46;5.73;;;1.83;;
13327;SDS011;6733;51.044;3.746;2023-03-23T09:53:21;7.03;;;2.43;;
13327;SDS011;6733;51.044;3.746;2023-03-23T09:55:50;5.57;;;2.40;;
13327;SDS011;6733;51.044;3.746;2023-03-23T10:01:12;6.00;;;2.17;;
13327;SDS011;6733;51.044;3.746;2023-03-23T10:03:45;4.20;;;2.37;;
13327;SDS011;6733;51.044;3.746;2023-03-23T10:06:14;9.63;;;2.90;;
13327;SDS011;6733;51.044;3.746;2023-03-23T10:08:47;5.17;;;2.53;;
13327;SDS011;6733;51.044;3.746;2023-03-23T10:16:57;8.00;;;3.33;;
13327;SDS011;6733;51.044;3.746;2023-03-23T10:19:47;7.13;;;2.90;;
13327;SDS011;6733;51.044;3.746;2023-03-23T10:22:36;9.37;;;3.20;;
13327;SDS011;6733;51.044;3.746;2023-03-23T10:30:26;5.40;;;2.40;;
13327;SDS011;6733;51.044;3.746;2023-03-23T10:35:55;10.10;;;3.27;;
13327;SDS011;6733;51.044;3.746;2023-03-23T10:38:27;7.80;;;3.13;;
13327;SDS011;6733;51.044;3.746;2023-03-23T10:40:59;6.93;;;3.33;;
13327;SDS011;6733;51.044;3.746;2023-03-23T10:43:29;8.50;;;3.27;;
13327;SDS011;6733;51.044;3.746;2023-03-23T10:45:57;5.27;;;3.33;;
13327;SDS011;6733;51.044;3.746;2023-03-23T10:48:33;6.70;;;2.70;;
13327;SDS011;6733;51.044;3.746;2023-03-23T10:51:03;7.43;;;3.60;;
13327;SDS011;6733;51.044;3.746;2023-03-23T10:53:36;9.30;;;3.27;;
13327;SDS011;6733;51.044;3.746;2023-03-23T10:56:04;9.90;;;3.37;;
13327;SDS011;6733;51.044;3.746;2023-03-23T10:58:44;9.93;;;3.43;;
13327;SDS011;6733;51.044;3.746;2023-03-23T11:01:11;8.63;;;3.73;;
13327;SDS011;6733;51.044;3.746;2023-03-23T11:03:42;10.53;;;3.13;;
13327;SDS011;6733;51.044;3.746;2023-03-23T11:06:18;10.70;;;4.33;;
13327;SDS011;6733;51.044;3.746;2023-03-23T11:08:49;7.30;;;3.93;;
13327;SDS011;6733;51.044;3.746;2023-03-23T11:11:38;6.60;;;3.70;;
13327;SDS011;6733;51.044;3.746;2023-03-23T11:14:28;10.13;;;3.93;;
13327;SDS011;6733;51.044;3.746;2023-03-23T11:16:56;10.60;;;4.00;;
13327;SDS011;6733;51.044;3.746;2023-03-23T11:19:26;8.43;;;4.03;;
13327;SDS011;6733;51.044;3.746;2023-03-23T11:21:53;10.80;;;3.60;;
13327;SDS011;6733;51.044;3.746;2023-03-23T11:24:25;5.90;;;3.30;;
13327;SDS011;6733;51.044;3.746;2023-03-23T11:26:52;7.50;;;3.33;;
13327;SDS011;6733;51.044;3.746;2023-03-23T11:29:23;13.00;;;4.00;;
13327;SDS011;6733;51.044;3.746;2023-03-23T11:31:52;12.07;;;3.53;;
13327;SDS011;6733;51.044;3.746;2023-03-23T11:34:41;8.73;;;3.80;;
13327;SDS011;6733;51.044;3.746;2023-03-23T11:37:47;8.73;;;3.27;;
13327;SDS011;6733;51.044;3.746;2023-03-23T11:45:17;12.33;;;3.47;;
13327;SDS011;6733;51.044;3.746;2023-03-23T11:47:49;8.20;;;3.13;;
13327;SDS011;6733;51.044;3.746;2023-03-23T11:50:31;6.43;;;3.30;;
13327;SDS011;6733;51.044;3.746;2023-03-23T11:58:17;12.00;;;3.80;;
13327;SDS011;6733;51.044;3.746;2023-03-23T12:00:48;7.90;;;3.17;;
13327;SDS011;6733;51.044;3.746;2023-03-23T12:03:22;9.13;;;3.80;;
13327;SDS011;6733;51.044;3.746;2023-03-23T12:06:12;9.93;;;3.50;;
13327;SDS011;6733;51.044;3.746;2023-03-23T12:11:31;10.17;;;3.33;;
13327;SDS011;6733;51.044;3.746;2023-03-23T12:14:20;8.33;;;3.40;;
13327;SDS011;6733;51.044;3.746;2023-03-23T12:19:53;11.07;;;3.57;;
13327;SDS011;6733;51.044;3.746;2023-03-23T12:28:04;11.20;;;4.03;;
13327;SDS011;6733;51.044;3.746;2023-03-23T12:30:52;11.60;;;3.97;;
13327;SDS011;6733;51.044;3.746;2023-03-23T12:33:37;7.97;;;3.37;;
13327;SDS011;6733;51.044;3.746;2023-03-23T12:44:56;9.40;;;3.30;;
13327;SDS011;6733;51.044;3.746;2023-03-23T12:58:01;11.23;;;3.80;;
13327;SDS011;6733;51.044;3.746;2023-03-23T13:00:46;9.70;;;3.73;;
13327;SDS011;6733;51.044;3.746;2023-03-23T13:05:50;12.17;;;3.30;;
13327;SDS011;6733;51.044;3.746;2023-03-23T13:08:43;10.17;;;3.60;;
13327;SDS011;6733;51.044;3.746;2023-03-23T13:11:19;8.70;;;3.73;;
13327;SDS011;6733;51.044;3.746;2023-03-23T13:13:51;9.57;;;4.13;;
13327;SDS011;6733;51.044;3.746;2023-03-23T13:19:22;11.03;;;3.97;;
13327;SDS011;6733;51.044;3.746;2023-03-23T13:22:05;13.30;;;4.03;;
13327;SDS011;6733;51.044;3.746;2023-03-23T13:24:38;9.40;;;3.50;;
13327;SDS011;6733;51.044;3.746;2023-03-23T13:27:15;12.50;;;3.70;;
13327;SDS011;6733;51.044;3.746;2023-03-23T13:29:43;10.13;;;4.13;;
13327;SDS011;6733;51.044;3.746;2023-03-23T13:32:15;8.63;;;3.33;;
13327;SDS011;6733;51.044;3.746;2023-03-23T13:34:43;10.50;;;3.40;;
13327;SDS011;6733;51.044;3.746;2023-03-23T13:37:22;8.13;;;3.20;;
13327;SDS011;6733;51.044;3.746;2023-03-23T13:39:57;7.73;;;3.53;;
13327;SDS011;6733;51.044;3.746;2023-03-23T13:42:34;8.27;;;3.00;;
13327;SDS011;6733;51.044;3.746;2023-03-23T13:45:07;11.30;;;3.50;;
13327;SDS011;6733;51.044;3.746;2023-03-23T13:47:44;11.57;;;3.83;;
13327;SDS011;6733;51.044;3.746;2023-03-23T13:50:43;11.10;;;3.47;;
13327;SDS011;6733;51.044;3.746;2023-03-23T13:53:13;10.93;;;3.50;;
13327;SDS011;6733;51.044;3.746;2023-03-23T13:55:50;6.93;;;2.97;;
13327;SDS011;6733;51.044;3.746;2023-03-23T13:58:29;11.63;;;3.60;;
13327;SDS011;6733;51.044;3.746;2023-03-23T14:01:08;9.27;;;3.10;;
13327;SDS011;6733;51.044;3.746;2023-03-23T14:03:40;13.80;;;4.27;;
13327;SDS011;6733;51.044;3.746;2023-03-23T14:06:12;6.53;;;3.30;;
13327;SDS011;6733;51.044;3.746;2023-03-23T14:08:41;14.00;;;3.80;;
13327;SDS011;6733;51.044;3.746;2023-03-23T14:13:51;12.60;;;3.30;;
13327;SDS011;6733;51.044;3.746;2023-03-23T14:16:34;6.97;;;3.13;;
13327;SDS011;6733;51.044;3.746;2023-03-23T14:21:52;8.03;;;3.57;;
13327;SDS011;6733;51.044;3.746;2023-03-23T14:24:21;9.03;;;3.53;;
13327;SDS011;6733;51.044;3.746;2023-03-23T14:26:54;8.47;;;3.47;;
13327;SDS011;6733;51.044;3.746;2023-03-23T14:29:28;9.07;;;3.73;;
13327;SDS011;6733;51.044;3.746;2023-03-23T14:31:55;6.37;;;3.13;;
13327;SDS011;6733;51.044;3.746;2023-03-23T14:34:28;3.77;;;2.90;;
13327;SDS011;6733;51.044;3.746;2023-03-23T14:36:56;9.30;;;3.90;;
13327;SDS011;6733;51.044;3.746;2023-03-23T14:39:30;6.67;;;3.43;;
13327;SDS011;6733;51.044;3.746;2023-03-23T14:42:05;9.20;;;4.25;;
13327;SDS011;6733;51.044;3.746;2023-03-23T14:44:39;8.70;;;3.10;;
13327;SDS011;6733;51.044;3.746;2023-03-23T15:25:29;11.53;;;3.63;;
13327;SDS011;6733;51.044;3.746;2023-03-23T15:28:06;9.87;;;3.77;;
13327;SDS011;6733;51.044;3.746;2023-03-23T15:30:51;8.33;;;3.53;;
13327;SDS011;6733;51.044;3.746;2023-03-23T15:33:20;9.83;;;4.27;;
13327;SDS011;6733;51.044;3.746;2023-03-23T15:35:52;12.97;;;3.90;;
13327;SDS011;6733;51.044;3.746;2023-03-23T15:38:29;9.20;;;3.90;;
13327;SDS011;6733;51.044;3.746;2023-03-23T15:40:58;11.63;;;3.63;;
13327;SDS011;6733;51.044;3.746;2023-03-23T15:43:37;12.77;;;4.03;;
13327;SDS011;6733;51.044;3.746;2023-03-23T15:48:49;12.00;;;4.10;;
13327;SDS011;6733;51.044;3.746;2023-03-23T15:51:19;12.40;;;4.17;;
13327;SDS011;6733;51.044;3.746;2023-03-23T15:53:47;11.63;;;4.20;;
13327;SDS011;6733;51.044;3.746;2023-03-23T15:56:15;14.67;;;4.47;;
13327;SDS011;6733;51.044;3.746;2023-03-23T15:58:42;10.03;;;4.33;;
13327;SDS011;6733;51.044;3.746;2023-03-23T16:01:12;15.50;;;4.93;;
13327;SDS011;6733;51.044;3.746;2023-03-23T16:04:00;10.77;;;4.27;;
13327;SDS011;6733;51.044;3.746;2023-03-23T16:06:33;12.10;;;4.03;;
13327;SDS011;6733;51.044;3.746;2023-03-23T16:09:00;11.93;;;4.20;;
13327;SDS011;6733;51.044;3.746;2023-03-23T16:11:28;10.00;;;3.93;;
13327;SDS011;6733;51.044;3.746;2023-03-23T16:13:56;15.37;;;6.60;;
13327;SDS011;6733;51.044;3.746;2023-03-23T16:16:27;11.07;;;3.70;;
13327;SDS011;6733;51.044;3.746;2023-03-23T16:19:07;13.40;;;3.93;;
13327;SDS011;6733;51.044;3.746;2023-03-23T16:21:35;9.73;;;3.67;;
13327;SDS011;6733;51.044;3.746;2023-03-23T16:24:01;12.63;;;4.00;;
13327;SDS011;6733;51.044;3.746;2023-03-23T16:26:28;9.67;;;3.63;;
13327;SDS011;6733;51.044;3.746;2023-03-23T16:28:54;12.07;;;3.13;;
13327;SDS011;6733;51.044;3.746;2023-03-23T16:31:21;7.50;;;3.53;;
13327;SDS011;6733;51.044;3.746;2023-03-23T16:33:47;10.57;;;3.87;;
13327;SDS011;6733;51.044;3.746;2023-03-23T16:36:13;7.10;;;3.07;;
13327;SDS011;6733;51.044;3.746;2023-03-23T16:38:40;10.17;;;3.10;;
13327;SDS011;6733;51.044;3.746;2023-03-23T16:41:07;9.97;;;3.30;;
13327;SDS011;6733;51.044;3.746;2023-03-23T16:43:33;10.77;;;3.60;;
13327;SDS011;6733;51.044;3.746;2023-03-23T16:46:00;5.67;;;2.73;;
13327;SDS011;6733;51.044;3.746;2023-03-23T16:48:26;7.77;;;3.03;;
13327;SDS011;6733;51.044;3.746;2023-03-23T16:50:53;9.63;;;3.00;;
13327;SDS011;6733;51.044;3.746;2023-03-23T16:53:19;9.50;;;3.37;;
13327;SDS011;6733;51.044;3.746;2023-03-23T16:55:46;11.33;;;3.17;;
13327;SDS011;6733;51.044;3.746;2023-03-23T16:58:16;8.80;;;3.00;;
13327;SDS011;6733;51.044;3.746;2023-03-23T17:00:42;8.77;;;3.53;;
13327;SDS011;6733;51.044;3.746;2023-03-23T17:03:11;9.90;;;3.10;;
13327;SDS011;6733;51.044;3.746;2023-03-23T17:05:38;14.70;;;6.73;;
13327;SDS011;6733;51.044;3.746;2023-03-23T17:08:04;10.20;;;3.27;;
13327;SDS011;6733;51.044;3.746;2023-03-23T17:10:30;13.27;;;3.93;;
13327;SDS011;6733;51.044;3.746;2023-03-23T17:12:57;10.60;;;4.10;;
13327;SDS011;6733;51.044;3.746;2023-03-23T17:15:23;11.77;;;4.20;;
13327;SDS011;6733;51.044;3.746;2023-03-23T17:17:50;17.80;;;4.90;;
13327;SDS011;6733;51.044;3.746;2023-03-23T17:20:17;10.90;;;3.77;;
13327;SDS011;6733;51.044;3.746;2023-03-23T17:22:43;8.93;;;3.77;;
13327;SDS011;6733;51.044;3.746;2023-03-23T17:25:09;12.90;;;4.43;;
13327;SDS011;6733;51.044;3.746;2023-03-23T17:27:36;15.90;;;4.80;;
13327;SDS011;6733;51.044;3.746;2023-03-23T17:30:03;9.57;;;3.70;;
13327;SDS011;6733;51.044;3.746;2023-03-23T17:32:31;11.73;;;4.17;;
13327;SDS011;6733;51.044;3.746;2023-03-23T17:34:58;11.70;;;4.30;;
13327;SDS011;6733;51.044;3.746;2023-03-23T17:37:24;10.77;;;3.87;;
13327;SDS011;6733;51.044;3.746;2023-03-23T17:39:50;16.53;;;6.17;;
13327;SDS011;6733;51.044;3.746;2023-03-23T17:42:16;10.70;;;4.10;;